sensor_id;sensor_type;location;lat;lon;timestamp;P1;durP1;ratioP1;P2;durP2;ratioP2
8476;SDS011;4275;42.854;23.222;2022-08-19T00:01:56;22.17;;;20.67;;
8476;SDS011;4275;42.854;23.222;2022-08-19T00:04:25;22.05;;;20.63;;
8476;SDS011;4275;42.854;23.222;2022-08-19T00:06:55;21.48;;;20.08;;
8476;SDS011;4275;42.854;23.222;2022-08-19T00:09:23;20.00;;;18.70;;
8476;SDS011;4275;42.854;23.222;2022-08-19T00:11:50;20.60;;;19.30;;
8476;SDS011;4275;42.854;23.222;2022-08-19T00:14:17;20.55;;;19.25;;
8476;SDS011;4275;42.854;23.222;2022-08-19T00:16:47;20.35;;;19.05;;
8476;SDS011;4275;42.854;23.222;2022-08-19T00:19:16;20.38;;;19.08;;
8476;SDS011;4275;42.854;23.222;2022-08-19T00:21:43;20.08;;;18.77;;
8476;SDS011;4275;42.854;23.222;2022-08-19T00:24:12;21.00;;;19.70;;
8476;SDS011;4275;42.854;23.222;2022-08-19T00:26:40;20.80;;;19.50;;
8476;SDS011;4275;42.854;23.222;2022-08-19T00:29:08;20.25;;;18.95;;
8476;SDS011;4275;42.854;23.222;2022-08-19T00:31:37;20.92;;;19.60;;
8476;SDS011;4275;42.854;23.222;2022-08-19T00:34:05;21.73;;;20.33;;
8476;SDS011;4275;42.854;23.222;2022-08-19T00:36:32;21.88;;;20.40;;
8476;SDS011;4275;42.854;23.222;2022-08-19T00:38:59;21.52;;;20.13;;
8476;SDS011;4275;42.854;23.222;2022-08-19T00:41:27;21.77;;;20.35;;
8476;SDS011;4275;42.854;23.222;2022-08-19T00:44:01;21.70;;;20.30;;
8476;SDS011;4275;42.854;23.222;2022-08-19T00:46:31;21.30;;;19.90;;
8476;SDS011;4275;42.854;23.222;2022-08-19T00:49:00;21.48;;;20.08;;
8476;SDS011;4275;42.854;23.222;2022-08-19T00:51:34;21.30;;;19.90;;
8476;SDS011;4275;42.854;23.222;2022-08-19T00:54:02;21.15;;;19.75;;
8476;SDS011;4275;42.854;23.222;2022-08-19T00:56:30;21.45;;;20.05;;
8476;SDS011;4275;42.854;23.222;2022-08-19T00:58:57;19.92;;;18.73;;
8476;SDS011;4275;42.854;23.222;2022-08-19T01:01:26;21.85;;;20.45;;
8476;SDS011;4275;42.854;23.222;2022-08-19T01:03:54;20.83;;;19.52;;
8476;SDS011;4275;42.854;23.222;2022-08-19T01:06:21;20.40;;;19.10;;
8476;SDS011;4275;42.854;23.222;2022-08-19T01:08:49;20.05;;;18.75;;
8476;SDS011;4275;42.854;23.222;2022-08-19T01:11:16;20.17;;;18.90;;
8476;SDS011;4275;42.854;23.222;2022-08-19T01:13:43;19.67;;;18.48;;
8476;SDS011;4275;42.854;23.222;2022-08-19T01:16:12;19.38;;;18.23;;
8476;SDS011;4275;42.854;23.222;2022-08-19T01:18:41;19.50;;;18.30;;
8476;SDS011;4275;42.854;23.222;2022-08-19T01:21:10;19.40;;;18.30;;
8476;SDS011;4275;42.854;23.222;2022-08-19T01:23:45;19.27;;;18.17;;
8476;SDS011;4275;42.854;23.222;2022-08-19T01:26:14;19.02;;;17.92;;
8476;SDS011;4275;42.854;23.222;2022-08-19T01:28:43;18.70;;;17.60;;
8476;SDS011;4275;42.854;23.222;2022-08-19T01:31:13;18.63;;;17.52;;
8476;SDS011;4275;42.854;23.222;2022-08-19T01:33:42;18.15;;;17.15;;
8476;SDS011;4275;42.854;23.222;2022-08-19T01:36:10;18.40;;;17.40;;
8476;SDS011;4275;42.854;23.222;2022-08-19T01:38:40;18.17;;;17.17;;
8476;SDS011;4275;42.854;23.222;2022-08-19T01:41:11;18.65;;;17.65;;
8476;SDS011;4275;42.854;23.222;2022-08-19T01:43:39;18.70;;;17.70;;
8476;SDS011;4275;42.854;23.222;2022-08-19T01:46:06;17.50;;;16.60;;
8476;SDS011;4275;42.854;23.222;2022-08-19T01:48:34;18.00;;;17.00;;
8476;SDS011;4275;42.854;23.222;2022-08-19T01:51:02;18.40;;;17.40;;
8476;SDS011;4275;42.854;23.222;2022-08-19T01:53:29;17.95;;;16.95;;
8476;SDS011;4275;42.854;23.222;2022-08-19T01:55:56;18.30;;;17.30;;
8476;SDS011;4275;42.854;23.222;2022-08-19T01:58:27;18.48;;;17.48;;
8476;SDS011;4275;42.854;23.222;2022-08-19T02:00:58;19.42;;;18.33;;
8476;SDS011;4275;42.854;23.222;2022-08-19T02:03:25;18.50;;;17.50;;
8476;SDS011;4275;42.854;23.222;2022-08-19T02:05:55;18.23;;;17.23;;
8476;SDS011;4275;42.854;23.222;2022-08-19T02:08:25;18.50;;;17.50;;
8476;SDS011;4275;42.854;23.222;2022-08-19T02:10:52;17.77;;;16.85;;
8476;SDS011;4275;42.854;23.222;2022-08-19T02:13:20;17.77;;;16.80;;
8476;SDS011;4275;42.854;23.222;2022-08-19T02:15:48;18.50;;;17.50;;
8476;SDS011;4275;42.854;23.222;2022-08-19T02:18:15;18.13;;;17.15;;
8476;SDS011;4275;42.854;23.222;2022-08-19T02:20:43;18.88;;;17.88;;
8476;SDS011;4275;42.854;23.222;2022-08-19T02:23:12;17.60;;;16.70;;
8476;SDS011;4275;42.854;23.222;2022-08-19T02:25:41;17.40;;;16.50;;
8476;SDS011;4275;42.854;23.222;2022-08-19T02:28:09;17.15;;;16.35;;
8476;SDS011;4275;42.854;23.222;2022-08-19T02:30:36;17.40;;;16.50;;
8476;SDS011;4275;42.854;23.222;2022-08-19T02:33:06;18.33;;;17.33;;
8476;SDS011;4275;42.854;23.222;2022-08-19T02:35:33;17.58;;;16.67;;
8476;SDS011;4275;42.854;23.222;2022-08-19T02:38:00;17.58;;;16.67;;
8476;SDS011;4275;42.854;23.222;2022-08-19T02:40:48;18.00;;;17.10;;
8476;SDS011;4275;42.854;23.222;2022-08-19T02:43:16;17.60;;;16.70;;
8476;SDS011;4275;42.854;23.222;2022-08-19T02:45:45;17.70;;;16.80;;
8476;SDS011;4275;42.854;23.222;2022-08-19T02:48:14;17.38;;;16.48;;
8476;SDS011;4275;42.854;23.222;2022-08-19T02:50:43;17.55;;;16.65;;
8476;SDS011;4275;42.854;23.222;2022-08-19T02:53:11;17.55;;;16.65;;
8476;SDS011;4275;42.854;23.222;2022-08-19T02:55:42;17.67;;;16.77;;
8476;SDS011;4275;42.854;23.222;2022-08-19T02:58:10;17.45;;;16.55;;
8476;SDS011;4275;42.854;23.222;2022-08-19T03:00:41;17.45;;;16.55;;
8476;SDS011;4275;42.854;23.222;2022-08-19T03:03:10;17.58;;;16.67;;
8476;SDS011;4275;42.854;23.222;2022-08-19T03:05:39;17.63;;;16.73;;
8476;SDS011;4275;42.854;23.222;2022-08-19T03:08:07;17.65;;;16.75;;
8476;SDS011;4275;42.854;23.222;2022-08-19T03:10:40;17.77;;;16.88;;
8476;SDS011;4275;42.854;23.222;2022-08-19T03:13:10;17.17;;;16.27;;
8476;SDS011;4275;42.854;23.222;2022-08-19T03:15:39;17.20;;;16.30;;
8476;SDS011;4275;42.854;23.222;2022-08-19T03:18:07;17.48;;;16.58;;
8476;SDS011;4275;42.854;23.222;2022-08-19T03:20:40;17.95;;;16.95;;
8476;SDS011;4275;42.854;23.222;2022-08-19T03:23:08;18.08;;;17.08;;
8476;SDS011;4275;42.854;23.222;2022-08-19T03:25:37;18.63;;;17.63;;
8476;SDS011;4275;42.854;23.222;2022-08-19T03:28:06;18.27;;;17.27;;
8476;SDS011;4275;42.854;23.222;2022-08-19T03:30:33;18.65;;;17.65;;
8476;SDS011;4275;42.854;23.222;2022-08-19T03:33:00;17.25;;;16.35;;
8476;SDS011;4275;42.854;23.222;2022-08-19T03:35:27;17.38;;;16.48;;
8476;SDS011;4275;42.854;23.222;2022-08-19T03:37:55;17.58;;;16.67;;
8476;SDS011;4275;42.854;23.222;2022-08-19T03:40:22;17.73;;;16.83;;
8476;SDS011;4275;42.854;23.222;2022-08-19T03:42:49;17.83;;;16.92;;
8476;SDS011;4275;42.854;23.222;2022-08-19T03:45:16;18.10;;;17.20;;
8476;SDS011;4275;42.854;23.222;2022-08-19T03:47:44;17.83;;;16.92;;
8476;SDS011;4275;42.854;23.222;2022-08-19T03:50:11;17.05;;;16.25;;
8476;SDS011;4275;42.854;23.222;2022-08-19T03:52:39;17.98;;;17.17;;
8476;SDS011;4275;42.854;23.222;2022-08-19T03:55:07;17.92;;;17.02;;
8476;SDS011;4275;42.854;23.222;2022-08-19T03:57:35;17.15;;;16.35;;
8476;SDS011;4275;42.854;23.222;2022-08-19T04:00:03;17.25;;;16.45;;
8476;SDS011;4275;42.854;23.222;2022-08-19T04:02:32;17.70;;;16.90;;
8476;SDS011;4275;42.854;23.222;2022-08-19T04:04:59;18.27;;;17.38;;
8476;SDS011;4275;42.854;23.222;2022-08-19T04:07:26;18.15;;;17.25;;
8476;SDS011;4275;42.854;23.222;2022-08-19T04:09:53;18.58;;;17.58;;
8476;SDS011;4275;42.854;23.222;2022-08-19T04:12:21;18.40;;;17.50;;
8476;SDS011;4275;42.854;23.222;2022-08-19T04:14:48;18.35;;;17.45;;
8476;SDS011;4275;42.854;23.222;2022-08-19T04:17:15;18.48;;;17.48;;
8476;SDS011;4275;42.854;23.222;2022-08-19T04:19:42;19.50;;;18.40;;
8476;SDS011;4275;42.854;23.222;2022-08-19T04:22:09;19.17;;;18.08;;
8476;SDS011;4275;42.854;23.222;2022-08-19T04:24:37;19.70;;;18.60;;
8476;SDS011;4275;42.854;23.222;2022-08-19T04:27:04;20.40;;;19.20;;
8476;SDS011;4275;42.854;23.222;2022-08-19T04:29:33;20.20;;;18.90;;
8476;SDS011;4275;42.854;23.222;2022-08-19T04:32:00;20.38;;;19.10;;
8476;SDS011;4275;42.854;23.222;2022-08-19T04:34:28;20.52;;;19.33;;
8476;SDS011;4275;42.854;23.222;2022-08-19T04:36:56;20.23;;;18.98;;
8476;SDS011;4275;42.854;23.222;2022-08-19T04:39:25;19.90;;;18.70;;
8476;SDS011;4275;42.854;23.222;2022-08-19T04:42:08;20.35;;;19.10;;
8476;SDS011;4275;42.854;23.222;2022-08-19T04:44:54;19.40;;;18.10;;
8476;SDS011;4275;42.854;23.222;2022-08-19T04:47:22;19.60;;;18.30;;
8476;SDS011;4275;42.854;23.222;2022-08-19T04:49:49;20.27;;;18.98;;
8476;SDS011;4275;42.854;23.222;2022-08-19T04:52:16;19.75;;;18.45;;
8476;SDS011;4275;42.854;23.222;2022-08-19T04:54:43;19.80;;;18.50;;
8476;SDS011;4275;42.854;23.222;2022-08-19T04:57:10;19.75;;;18.45;;
8476;SDS011;4275;42.854;23.222;2022-08-19T04:59:37;19.65;;;18.35;;
8476;SDS011;4275;42.854;23.222;2022-08-19T05:02:07;19.30;;;18.00;;
8476;SDS011;4275;42.854;23.222;2022-08-19T05:04:35;19.33;;;18.02;;
8476;SDS011;4275;42.854;23.222;2022-08-19T05:07:04;19.48;;;18.27;;
8476;SDS011;4275;42.854;23.222;2022-08-19T05:09:31;19.48;;;18.25;;
8476;SDS011;4275;42.854;23.222;2022-08-19T05:11:59;20.15;;;18.85;;
8476;SDS011;4275;42.854;23.222;2022-08-19T05:14:26;19.33;;;18.13;;
8476;SDS011;4275;42.854;23.222;2022-08-19T05:16:54;19.50;;;18.30;;
8476;SDS011;4275;42.854;23.222;2022-08-19T05:19:22;19.10;;;18.00;;
8476;SDS011;4275;42.854;23.222;2022-08-19T05:22:07;18.70;;;17.60;;
8476;SDS011;4275;42.854;23.222;2022-08-19T05:24:51;19.63;;;18.42;;
8476;SDS011;4275;42.854;23.222;2022-08-19T05:27:18;19.35;;;18.25;;
8476;SDS011;4275;42.854;23.222;2022-08-19T05:29:45;19.67;;;18.48;;
8476;SDS011;4275;42.854;23.222;2022-08-19T05:32:12;20.75;;;19.55;;
8476;SDS011;4275;42.854;23.222;2022-08-19T05:34:41;20.10;;;18.90;;
8476;SDS011;4275;42.854;23.222;2022-08-19T05:37:08;20.42;;;19.23;;
8476;SDS011;4275;42.854;23.222;2022-08-19T05:39:37;25.42;;;23.98;;
8476;SDS011;4275;42.854;23.222;2022-08-19T05:42:07;19.80;;;18.63;;
8476;SDS011;4275;42.854;23.222;2022-08-19T05:44:36;19.88;;;18.67;;
8476;SDS011;4275;42.854;23.222;2022-08-19T05:47:05;20.88;;;19.58;;
8476;SDS011;4275;42.854;23.222;2022-08-19T05:49:34;20.60;;;19.40;;
8476;SDS011;4275;42.854;23.222;2022-08-19T05:52:05;19.55;;;18.35;;
8476;SDS011;4275;42.854;23.222;2022-08-19T05:54:36;19.75;;;18.55;;
8476;SDS011;4275;42.854;23.222;2022-08-19T05:57:05;19.50;;;18.30;;
8476;SDS011;4275;42.854;23.222;2022-08-19T05:59:32;19.42;;;18.23;;
8476;SDS011;4275;42.854;23.222;2022-08-19T06:02:00;19.65;;;18.45;;
8476;SDS011;4275;42.854;23.222;2022-08-19T06:04:28;19.75;;;18.55;;
8476;SDS011;4275;42.854;23.222;2022-08-19T06:06:55;20.58;;;19.27;;
8476;SDS011;4275;42.854;23.222;2022-08-19T06:09:24;21.00;;;19.70;;
8476;SDS011;4275;42.854;23.222;2022-08-19T06:11:53;21.10;;;19.80;;
8476;SDS011;4275;42.854;23.222;2022-08-19T06:14:25;21.00;;;19.70;;
8476;SDS011;4275;42.854;23.222;2022-08-19T06:16:53;20.77;;;19.48;;
8476;SDS011;4275;42.854;23.222;2022-08-19T06:19:21;20.90;;;19.55;;
8476;SDS011;4275;42.854;23.222;2022-08-19T06:21:51;20.42;;;19.10;;
8476;SDS011;4275;42.854;23.222;2022-08-19T06:24:19;20.95;;;19.55;;
8476;SDS011;4275;42.854;23.222;2022-08-19T06:26:51;20.48;;;19.17;;
8476;SDS011;4275;42.854;23.222;2022-08-19T06:29:20;20.35;;;19.05;;
8476;SDS011;4275;42.854;23.222;2022-08-19T06:31:50;20.27;;;18.98;;
8476;SDS011;4275;42.854;23.222;2022-08-19T06:34:19;20.52;;;19.23;;
8476;SDS011;4275;42.854;23.222;2022-08-19T06:36:48;20.67;;;19.30;;
8476;SDS011;4275;42.854;23.222;2022-08-19T06:39:18;20.80;;;19.40;;
8476;SDS011;4275;42.854;23.222;2022-08-19T06:41:47;19.98;;;18.67;;
8476;SDS011;4275;42.854;23.222;2022-08-19T06:44:17;20.48;;;19.15;;
8476;SDS011;4275;42.854;23.222;2022-08-19T06:46:46;21.02;;;19.63;;
8476;SDS011;4275;42.854;23.222;2022-08-19T06:49:14;20.58;;;19.17;;
8476;SDS011;4275;42.854;23.222;2022-08-19T06:51:41;20.60;;;19.20;;
8476;SDS011;4275;42.854;23.222;2022-08-19T06:54:09;20.67;;;19.27;;
8476;SDS011;4275;42.854;23.222;2022-08-19T06:56:36;20.58;;;19.17;;
8476;SDS011;4275;42.854;23.222;2022-08-19T06:59:05;21.20;;;19.70;;
8476;SDS011;4275;42.854;23.222;2022-08-19T07:01:36;21.05;;;19.55;;
8476;SDS011;4275;42.854;23.222;2022-08-19T07:04:05;21.30;;;19.80;;
8476;SDS011;4275;42.854;23.222;2022-08-19T07:06:33;21.70;;;20.20;;
8476;SDS011;4275;42.854;23.222;2022-08-19T07:09:02;21.42;;;19.98;;
8476;SDS011;4275;42.854;23.222;2022-08-19T07:11:30;21.52;;;20.02;;
8476;SDS011;4275;42.854;23.222;2022-08-19T07:13:57;21.60;;;20.10;;
8476;SDS011;4275;42.854;23.222;2022-08-19T07:16:25;21.42;;;19.92;;
8476;SDS011;4275;42.854;23.222;2022-08-19T07:18:54;21.30;;;19.80;;
8476;SDS011;4275;42.854;23.222;2022-08-19T07:21:23;21.85;;;20.33;;
8476;SDS011;4275;42.854;23.222;2022-08-19T07:23:53;20.38;;;18.98;;
8476;SDS011;4275;42.854;23.222;2022-08-19T07:26:21;21.10;;;19.60;;
8476;SDS011;4275;42.854;23.222;2022-08-19T07:28:50;20.75;;;19.25;;
8476;SDS011;4275;42.854;23.222;2022-08-19T07:31:18;21.60;;;20.10;;
8476;SDS011;4275;42.854;23.222;2022-08-19T07:33:47;21.45;;;19.95;;
8476;SDS011;4275;42.854;23.222;2022-08-19T07:36:18;20.90;;;19.40;;
8476;SDS011;4275;42.854;23.222;2022-08-19T07:38:49;20.67;;;19.17;;
8476;SDS011;4275;42.854;23.222;2022-08-19T07:41:20;20.08;;;18.67;;
8476;SDS011;4275;42.854;23.222;2022-08-19T07:43:48;20.05;;;18.65;;
8476;SDS011;4275;42.854;23.222;2022-08-19T07:46:17;20.05;;;18.65;;
8476;SDS011;4275;42.854;23.222;2022-08-19T07:48:46;20.42;;;19.02;;
8476;SDS011;4275;42.854;23.222;2022-08-19T07:51:14;19.40;;;18.00;;
8476;SDS011;4275;42.854;23.222;2022-08-19T07:53:45;19.88;;;18.48;;
8476;SDS011;4275;42.854;23.222;2022-08-19T07:56:13;19.70;;;18.25;;
8476;SDS011;4275;42.854;23.222;2022-08-19T07:58:42;19.85;;;18.45;;
8476;SDS011;4275;42.854;23.222;2022-08-19T08:01:11;19.77;;;18.27;;
8476;SDS011;4275;42.854;23.222;2022-08-19T08:03:40;19.95;;;18.48;;
8476;SDS011;4275;42.854;23.222;2022-08-19T08:06:25;19.75;;;18.35;;
8476;SDS011;4275;42.854;23.222;2022-08-19T08:09:11;19.85;;;18.45;;
8476;SDS011;4275;42.854;23.222;2022-08-19T08:11:47;19.95;;;18.55;;
8476;SDS011;4275;42.854;23.222;2022-08-19T08:14:17;20.00;;;18.50;;
8476;SDS011;4275;42.854;23.222;2022-08-19T08:16:46;19.73;;;18.33;;
8476;SDS011;4275;42.854;23.222;2022-08-19T08:19:15;19.70;;;18.30;;
8476;SDS011;4275;42.854;23.222;2022-08-19T08:21:44;20.08;;;18.67;;
8476;SDS011;4275;42.854;23.222;2022-08-19T08:24:12;20.38;;;18.98;;
8476;SDS011;4275;42.854;23.222;2022-08-19T08:26:39;20.40;;;19.00;;
8476;SDS011;4275;42.854;23.222;2022-08-19T08:29:07;20.70;;;19.30;;
8476;SDS011;4275;42.854;23.222;2022-08-19T08:31:36;20.38;;;18.98;;
8476;SDS011;4275;42.854;23.222;2022-08-19T08:34:04;20.33;;;18.92;;
8476;SDS011;4275;42.854;23.222;2022-08-19T08:36:31;20.35;;;18.95;;
8476;SDS011;4275;42.854;23.222;2022-08-19T08:38:58;20.40;;;19.00;;
8476;SDS011;4275;42.854;23.222;2022-08-19T08:41:28;20.55;;;19.05;;
8476;SDS011;4275;42.854;23.222;2022-08-19T08:44:01;20.00;;;18.60;;
8476;SDS011;4275;42.854;23.222;2022-08-19T08:46:33;20.15;;;18.77;;
8476;SDS011;4275;42.854;23.222;2022-08-19T08:49:15;20.00;;;18.70;;
8476;SDS011;4275;42.854;23.222;2022-08-19T08:51:51;22.02;;;20.40;;
8476;SDS011;4275;42.854;23.222;2022-08-19T08:54:22;20.70;;;19.30;;
8476;SDS011;4275;42.854;23.222;2022-08-19T08:56:53;20.55;;;19.15;;
8476;SDS011;4275;42.854;23.222;2022-08-19T08:59:21;20.63;;;19.23;;
8476;SDS011;4275;42.854;23.222;2022-08-19T09:01:52;20.13;;;18.73;;
8476;SDS011;4275;42.854;23.222;2022-08-19T09:04:19;20.05;;;18.65;;
8476;SDS011;4275;42.854;23.222;2022-08-19T09:06:49;20.90;;;19.40;;
8476;SDS011;4275;42.854;23.222;2022-08-19T09:09:23;20.38;;;18.98;;
8476;SDS011;4275;42.854;23.222;2022-08-19T09:12:01;20.50;;;19.10;;
8476;SDS011;4275;42.854;23.222;2022-08-19T09:14:39;19.88;;;18.48;;
8476;SDS011;4275;42.854;23.222;2022-08-19T09:17:13;19.80;;;18.40;;
8476;SDS011;4275;42.854;23.222;2022-08-19T09:19:49;20.08;;;18.67;;
8476;SDS011;4275;42.854;23.222;2022-08-19T09:22:18;19.98;;;18.58;;
8476;SDS011;4275;42.854;23.222;2022-08-19T09:24:47;19.98;;;18.58;;
8476;SDS011;4275;42.854;23.222;2022-08-19T09:27:16;20.10;;;18.70;;
8476;SDS011;4275;42.854;23.222;2022-08-19T09:29:44;20.23;;;18.83;;
8476;SDS011;4275;42.854;23.222;2022-08-19T09:32:13;20.42;;;19.02;;
8476;SDS011;4275;42.854;23.222;2022-08-19T09:34:40;20.60;;;19.20;;
8476;SDS011;4275;42.854;23.222;2022-08-19T09:37:08;24.70;;;22.88;;
8476;SDS011;4275;42.854;23.222;2022-08-19T09:39:36;20.50;;;19.10;;
8476;SDS011;4275;42.854;23.222;2022-08-19T09:42:04;20.70;;;19.30;;
8476;SDS011;4275;42.854;23.222;2022-08-19T09:44:36;20.33;;;18.92;;
8476;SDS011;4275;42.854;23.222;2022-08-19T09:47:04;20.65;;;19.25;;
8476;SDS011;4275;42.854;23.222;2022-08-19T09:49:31;20.85;;;19.45;;
8476;SDS011;4275;42.854;23.222;2022-08-19T09:51:58;21.08;;;19.67;;
8476;SDS011;4275;42.854;23.222;2022-08-19T09:54:25;21.10;;;19.60;;
8476;SDS011;4275;42.854;23.222;2022-08-19T09:56:53;21.15;;;19.75;;
8476;SDS011;4275;42.854;23.222;2022-08-19T09:59:22;20.23;;;18.83;;
8476;SDS011;4275;42.854;23.222;2022-08-19T10:01:50;19.80;;;18.40;;
8476;SDS011;4275;42.854;23.222;2022-08-19T10:04:18;21.05;;;19.55;;
8476;SDS011;4275;42.854;23.222;2022-08-19T10:06:46;20.52;;;19.13;;
8476;SDS011;4275;42.854;23.222;2022-08-19T10:09:15;20.65;;;19.25;;
8476;SDS011;4275;42.854;23.222;2022-08-19T10:11:44;20.92;;;19.45;;
8476;SDS011;4275;42.854;23.222;2022-08-19T10:14:13;21.17;;;19.67;;
8476;SDS011;4275;42.854;23.222;2022-08-19T10:16:40;20.95;;;19.55;;
8476;SDS011;4275;42.854;23.222;2022-08-19T10:19:09;20.88;;;19.38;;
8476;SDS011;4275;42.854;23.222;2022-08-19T10:21:36;21.50;;;20.10;;
8476;SDS011;4275;42.854;23.222;2022-08-19T10:24:04;20.80;;;19.40;;
8476;SDS011;4275;42.854;23.222;2022-08-19T10:26:33;21.02;;;19.63;;
8476;SDS011;4275;42.854;23.222;2022-08-19T10:29:02;21.13;;;19.73;;
8476;SDS011;4275;42.854;23.222;2022-08-19T10:31:31;21.10;;;19.70;;
8476;SDS011;4275;42.854;23.222;2022-08-19T10:34:00;21.30;;;19.90;;
8476;SDS011;4275;42.854;23.222;2022-08-19T10:36:29;20.83;;;19.42;;
8476;SDS011;4275;42.854;23.222;2022-08-19T10:38:58;21.02;;;19.63;;
8476;SDS011;4275;42.854;23.222;2022-08-19T10:41:28;21.48;;;19.98;;
8476;SDS011;4275;42.854;23.222;2022-08-19T10:43:57;20.90;;;19.50;;
8476;SDS011;4275;42.854;23.222;2022-08-19T10:46:27;21.20;;;19.80;;
8476;SDS011;4275;42.854;23.222;2022-08-19T10:48:57;21.08;;;19.67;;
8476;SDS011;4275;42.854;23.222;2022-08-19T10:51:25;20.92;;;19.52;;
8476;SDS011;4275;42.854;23.222;2022-08-19T10:54:11;21.08;;;19.58;;
8476;SDS011;4275;42.854;23.222;2022-08-19T10:56:38;20.92;;;19.48;;
8476;SDS011;4275;42.854;23.222;2022-08-19T10:59:20;22.02;;;20.33;;
8476;SDS011;4275;42.854;23.222;2022-08-19T11:01:49;20.80;;;19.40;;
8476;SDS011;4275;42.854;23.222;2022-08-19T11:04:18;21.02;;;19.63;;
8476;SDS011;4275;42.854;23.222;2022-08-19T11:06:47;21.05;;;19.55;;
8476;SDS011;4275;42.854;23.222;2022-08-19T11:09:18;20.90;;;19.50;;
8476;SDS011;4275;42.854;23.222;2022-08-19T11:11:49;20.65;;;19.25;;
8476;SDS011;4275;42.854;23.222;2022-08-19T11:14:18;20.75;;;19.25;;
8476;SDS011;4275;42.854;23.222;2022-08-19T11:16:47;20.85;;;19.45;;
8476;SDS011;4275;42.854;23.222;2022-08-19T11:19:15;20.83;;;19.42;;
8476;SDS011;4275;42.854;23.222;2022-08-19T11:21:45;20.90;;;19.40;;
8476;SDS011;4275;42.854;23.222;2022-08-19T11:24:15;20.48;;;19.08;;
8476;SDS011;4275;42.854;23.222;2022-08-19T11:26:46;20.92;;;19.50;;
8476;SDS011;4275;42.854;23.222;2022-08-19T11:29:15;20.77;;;19.38;;
8476;SDS011;4275;42.854;23.222;2022-08-19T11:31:44;21.08;;;19.60;;
8476;SDS011;4275;42.854;23.222;2022-08-19T11:34:15;21.33;;;19.88;;
8476;SDS011;4275;42.854;23.222;2022-08-19T11:36:44;20.40;;;18.98;;
8476;SDS011;4275;42.854;23.222;2022-08-19T11:39:13;20.83;;;19.33;;
8476;SDS011;4275;42.854;23.222;2022-08-19T11:41:44;20.45;;;19.05;;
8476;SDS011;4275;42.854;23.222;2022-08-19T11:44:12;20.50;;;19.10;;
8476;SDS011;4275;42.854;23.222;2022-08-19T11:46:40;21.10;;;19.70;;
8476;SDS011;4275;42.854;23.222;2022-08-19T11:49:10;21.52;;;20.02;;
8476;SDS011;4275;42.854;23.222;2022-08-19T11:51:38;21.30;;;19.90;;
8476;SDS011;4275;42.854;23.222;2022-08-19T11:54:05;21.23;;;19.83;;
8476;SDS011;4275;42.854;23.222;2022-08-19T11:56:32;21.92;;;20.52;;
8476;SDS011;4275;42.854;23.222;2022-08-19T11:59:00;21.08;;;19.67;;
8476;SDS011;4275;42.854;23.222;2022-08-19T12:01:28;21.70;;;20.20;;
8476;SDS011;4275;42.854;23.222;2022-08-19T12:03:55;22.13;;;20.63;;
8476;SDS011;4275;42.854;23.222;2022-08-19T12:06:24;22.33;;;20.83;;
8476;SDS011;4275;42.854;23.222;2022-08-19T12:08:53;22.17;;;20.67;;
8476;SDS011;4275;42.854;23.222;2022-08-19T12:11:20;21.35;;;19.95;;
8476;SDS011;4275;42.854;23.222;2022-08-19T12:13:48;21.48;;;20.08;;
8476;SDS011;4275;42.854;23.222;2022-08-19T12:16:18;21.25;;;19.85;;
8476;SDS011;4275;42.854;23.222;2022-08-19T12:18:48;21.42;;;20.02;;
8476;SDS011;4275;42.854;23.222;2022-08-19T12:21:17;21.35;;;19.95;;
8476;SDS011;4275;42.854;23.222;2022-08-19T12:23:47;21.45;;;20.05;;
8476;SDS011;4275;42.854;23.222;2022-08-19T12:26:16;21.50;;;20.05;;
8476;SDS011;4275;42.854;23.222;2022-08-19T12:28:43;21.95;;;20.55;;
8476;SDS011;4275;42.854;23.222;2022-08-19T12:31:11;21.00;;;19.60;;
8476;SDS011;4275;42.854;23.222;2022-08-19T12:33:39;21.23;;;19.77;;
8476;SDS011;4275;42.854;23.222;2022-08-19T12:36:08;21.55;;;20.15;;
8476;SDS011;4275;42.854;23.222;2022-08-19T12:38:37;21.58;;;20.08;;
8476;SDS011;4275;42.854;23.222;2022-08-19T12:41:05;22.15;;;20.65;;
8476;SDS011;4275;42.854;23.222;2022-08-19T12:43:33;21.35;;;19.95;;
8476;SDS011;4275;42.854;23.222;2022-08-19T12:46:00;21.20;;;19.80;;
8476;SDS011;4275;42.854;23.222;2022-08-19T12:48:27;21.55;;;20.15;;
8476;SDS011;4275;42.854;23.222;2022-08-19T12:50:56;21.30;;;19.90;;
8476;SDS011;4275;42.854;23.222;2022-08-19T12:53:23;21.38;;;19.98;;
8476;SDS011;4275;42.854;23.222;2022-08-19T12:55:54;21.60;;;20.13;;
8476;SDS011;4275;42.854;23.222;2022-08-19T12:58:22;21.67;;;20.17;;
8476;SDS011;4275;42.854;23.222;2022-08-19T13:00:49;21.45;;;20.00;;
8476;SDS011;4275;42.854;23.222;2022-08-19T13:03:16;22.02;;;20.52;;
8476;SDS011;4275;42.854;23.222;2022-08-19T13:05:43;21.80;;;20.30;;
8476;SDS011;4275;42.854;23.222;2022-08-19T13:08:12;21.40;;;19.90;;
8476;SDS011;4275;42.854;23.222;2022-08-19T13:10:39;21.80;;;20.30;;
8476;SDS011;4275;42.854;23.222;2022-08-19T13:13:07;21.33;;;19.92;;
8476;SDS011;4275;42.854;23.222;2022-08-19T13:15:36;21.95;;;20.45;;
8476;SDS011;4275;42.854;23.222;2022-08-19T13:18:07;22.17;;;20.65;;
8476;SDS011;4275;42.854;23.222;2022-08-19T13:20:35;21.38;;;19.88;;
8476;SDS011;4275;42.854;23.222;2022-08-19T13:23:05;21.63;;;20.13;;
8476;SDS011;4275;42.854;23.222;2022-08-19T13:25:34;21.65;;;20.15;;
8476;SDS011;4275;42.854;23.222;2022-08-19T13:28:02;21.13;;;19.73;;
8476;SDS011;4275;42.854;23.222;2022-08-19T13:30:31;21.50;;;20.00;;
8476;SDS011;4275;42.854;23.222;2022-08-19T13:33:16;22.10;;;20.60;;
8476;SDS011;4275;42.854;23.222;2022-08-19T13:35:45;21.63;;;20.13;;
8476;SDS011;4275;42.854;23.222;2022-08-19T13:38:14;22.17;;;20.67;;
8476;SDS011;4275;42.854;23.222;2022-08-19T13:40:44;21.45;;;20.05;;
8476;SDS011;4275;42.854;23.222;2022-08-19T13:43:11;22.00;;;20.50;;
8476;SDS011;4275;42.854;23.222;2022-08-19T13:45:38;22.35;;;20.85;;
8476;SDS011;4275;42.854;23.222;2022-08-19T13:48:06;21.23;;;19.83;;
8476;SDS011;4275;42.854;23.222;2022-08-19T13:50:35;21.60;;;20.10;;
8476;SDS011;4275;42.854;23.222;2022-08-19T13:53:05;21.80;;;20.30;;
8476;SDS011;4275;42.854;23.222;2022-08-19T13:55:33;21.67;;;20.17;;
8476;SDS011;4275;42.854;23.222;2022-08-19T13:58:02;21.15;;;19.65;;
8476;SDS011;4275;42.854;23.222;2022-08-19T14:00:31;21.30;;;19.80;;
8476;SDS011;4275;42.854;23.222;2022-08-19T14:03:00;21.48;;;19.98;;
8476;SDS011;4275;42.854;23.222;2022-08-19T14:05:27;21.73;;;20.23;;
8476;SDS011;4275;42.854;23.222;2022-08-19T14:07:55;22.05;;;20.55;;
8476;SDS011;4275;42.854;23.222;2022-08-19T14:10:23;21.80;;;20.30;;
8476;SDS011;4275;42.854;23.222;2022-08-19T14:12:52;21.30;;;19.83;;
8476;SDS011;4275;42.854;23.222;2022-08-19T14:15:22;22.10;;;20.60;;
8476;SDS011;4275;42.854;23.222;2022-08-19T14:17:49;22.35;;;20.85;;
8476;SDS011;4275;42.854;23.222;2022-08-19T14:20:16;21.85;;;20.35;;
8476;SDS011;4275;42.854;23.222;2022-08-19T14:22:44;22.55;;;20.95;;
8476;SDS011;4275;42.854;23.222;2022-08-19T14:25:14;22.63;;;21.02;;
8476;SDS011;4275;42.854;23.222;2022-08-19T14:27:43;22.40;;;20.80;;
8476;SDS011;4275;42.854;23.222;2022-08-19T14:30:11;22.77;;;21.17;;
8476;SDS011;4275;42.854;23.222;2022-08-19T14:32:41;22.77;;;21.17;;
8476;SDS011;4275;42.854;23.222;2022-08-19T14:35:09;22.75;;;21.15;;
8476;SDS011;4275;42.854;23.222;2022-08-19T14:37:37;22.60;;;21.00;;
8476;SDS011;4275;42.854;23.222;2022-08-19T14:40:06;23.08;;;21.48;;
8476;SDS011;4275;42.854;23.222;2022-08-19T14:42:34;22.77;;;21.17;;
8476;SDS011;4275;42.854;23.222;2022-08-19T14:45:01;22.80;;;21.20;;